Keen Mountain, Virginia
Current Conditions -  °F | °C
As of 8:35 AM on Wednesday 22 Oct 2014 (Local Time) from KJFZ Reporting Station
Overcast Overcast  
Wind Chill: 39°   Ceiling: 500
Heat Index: 43°   Visibility: 7mi
Dew Point: 40°   Wind: 7mph
Humidity: 91%   Direction: 310°NW
Pressure: 30.13"   Gusts: NA
Location:  37.2°N, 81.99°W
Report Text: KJFZ 221235Z AUTO 31006KT 7SM OVC005 06/05 A3013 RMK AO2 T00610047
Loading
Personal Weather Stations






























Interactive Weather Map
Tropical Storm Tracking
New forecast layout! Learn more

10-Day Weather Forecast

Advertisements
Track Severe Weather on mobile